createdAt,value
2023-01-01T00:01:11.661Z,107.43
2023-01-01T00:04:15.903Z,104.53
2023-01-01T00:07:17.981Z,97.55
2023-01-01T00:10:31.095Z,94.05
2023-01-01T00:13:33.658Z,89.18
2023-01-01T00:16:35.820Z,90.10
2023-01-01T00:19:38.525Z,85.28
2023-01-01T00:22:54.625Z,92.18
2023-01-01T00:25:57.967Z,87.43
2023-01-01T00:29:00.148Z,79.65
2023-01-01T00:32:02.358Z,91.47
2023-01-01T00:35:05.269Z,86.28
2023-01-01T00:38:07.700Z,92.03
2023-01-01T00:41:10.216Z,76.38
2023-01-01T00:44:12.171Z,84.82
2023-01-01T00:47:14.285Z,67.22
2023-01-01T00:50:16.835Z,78.72
2023-01-01T00:53:20.230Z,77.78
2023-01-01T00:56:22.232Z,76.07
2023-01-01T00:59:28.708Z,75.70
2023-01-01T01:02:31.395Z,76.00
2023-01-01T01:05:37.190Z,80.70
2023-01-01T01:08:42.304Z,77.60
2023-01-01T01:11:44.347Z,81.22
2023-01-01T01:14:47.456Z,72.00
2023-01-01T01:17:49.639Z,72.68
2023-01-01T01:20:53.643Z,75.38
2023-01-01T01:23:59.945Z,79.22
2023-01-01T01:27:02.047Z,74.85
2023-01-01T01:30:04.786Z,88.28
2023-01-01T01:33:06.865Z,78.78
2023-01-01T01:36:11.104Z,71.57
2023-01-01T01:39:13.152Z,71.20
2023-01-01T01:42:19.000Z,75.18
2023-01-01T01:45:21.332Z,82.25
2023-01-01T01:48:24.951Z,72.88
2023-01-01T01:51:32.489Z,70.47
2023-01-01T01:54:34.577Z,77.03
2023-01-01T01:57:39.210Z,78.60
2023-01-01T02:00:41.463Z,68.47
2023-01-01T02:04:09.718Z,72.43
2023-01-01T02:07:15.155Z,73.32
2023-01-01T02:10:19.555Z,66.65
2023-01-01T02:13:22.211Z,73.47
2023-01-01T02:16:40.071Z,77.65
2023-01-01T02:20:03.458Z,82.88
2023-01-01T02:23:05.568Z,70.75
2023-01-01T02:26:40.739Z,64.55
2023-01-01T02:29:48.164Z,75.00
2023-01-01T02:32:59.172Z,69.85
2023-01-01T02:36:06.606Z,75.00
2023-01-01T02:39:10.868Z,76.78
2023-01-01T02:42:13.815Z,73.72
2023-01-01T02:45:16.058Z,69.93
2023-01-01T02:48:36.633Z,70.65
2023-01-01T02:52:04.404Z,73.25
2023-01-01T02:55:30.881Z,73.50
2023-01-01T02:59:11.562Z,66.80
2023-01-01T03:02:25.295Z,69.57
2023-01-01T03:06:04.803Z,68.70
2023-01-01T03:09:38.935Z,73.63
2023-01-01T03:12:56.057Z,80.15
2023-01-01T03:16:13.407Z,73.97
2023-01-01T03:19:20.891Z,71.65
2023-01-01T03:22:29.394Z,70.20
2023-01-01T03:28:53.083Z,75.32
2023-01-01T03:31:59.483Z,67.22
2023-01-01T03:35:03.510Z,73.28
2023-01-01T03:38:21.308Z,71.88
2023-01-01T03:41:44.651Z,69.93
2023-01-01T03:44:51.076Z,79.53
2023-01-01T03:47:53.554Z,74.72
2023-01-01T03:51:19.543Z,73.10
2023-01-01T03:54:33.419Z,76.63
2023-01-01T03:57:57.225Z,78.65
2023-01-01T04:01:11.434Z,88.43
2023-01-01T04:04:16.023Z,78.20
2023-01-01T04:07:18.503Z,83.07
2023-01-01T04:10:21.776Z,76.82
2023-01-01T04:13:24.272Z,78.18
2023-01-01T04:16:26.720Z,84.75
2023-01-01T04:19:29.372Z,81.20
2023-01-01T04:22:31.501Z,77.45
2023-01-01T04:25:34.915Z,81.75
2023-01-01T04:28:36.896Z,78.55
2023-01-01T04:31:38.918Z,70.30
2023-01-01T04:34:41.049Z,73.55
2023-01-01T04:37:44.656Z,75.97
2023-01-01T04:40:47.654Z,83.95
2023-01-01T04:43:50.779Z,84.18
2023-01-01T04:46:56.906Z,81.55
2023-01-01T04:50:02.162Z,77.93
2023-01-01T04:53:04.177Z,71.00
2023-01-01T04:56:16.602Z,75.75
2023-01-01T04:59:18.657Z,73.28
2023-01-01T05:02:21.115Z,66.40
2023-01-01T05:05:23.299Z,63.78
2023-01-01T05:08:25.600Z,61.35
2023-01-01T05:11:31.173Z,60.35
2023-01-01T05:14:33.983Z,69.03
2023-01-01T05:17:36.087Z,60.25
2023-01-01T05:20:39.534Z,63.97
2023-01-01T05:23:41.965Z,66.15
2023-01-01T05:26:46.711Z,60.42
2023-01-01T05:29:48.803Z,62.85
2023-01-01T05:32:51.292Z,64.50
2023-01-01T05:35:54.951Z,60.60
2023-01-01T05:38:58.465Z,57.90
2023-01-01T05:42:00.512Z,59.13
2023-01-01T05:45:03.841Z,62.70
2023-01-01T05:48:07.402Z,76.72
2023-01-01T05:51:18.311Z,70.85
2023-01-01T05:54:20.357Z,66.50
2023-01-01T05:57:22.505Z,67.13
2023-01-01T06:00:24.680Z,61.30
2023-01-01T06:03:26.684Z,61.90
2023-01-01T06:06:33.489Z,62.47
2023-01-01T06:09:35.565Z,66.18
2023-01-01T06:12:37.729Z,59.75
2023-01-01T06:15:39.864Z,62.15
2023-01-01T06:18:42.023Z,68.75
2023-01-01T06:21:44.096Z,59.65
2023-01-01T06:24:46.298Z,63.10
2023-01-01T06:27:48.412Z,64.63
2023-01-01T06:30:50.496Z,63.08
2023-01-01T06:33:52.907Z,56.25
2023-01-01T06:36:54.900Z,64.50
2023-01-01T06:39:56.891Z,70.43
2023-01-01T06:42:58.914Z,60.97
2023-01-01T06:46:05.272Z,70.00
2023-01-01T06:49:11.201Z,69.10
2023-01-01T06:52:13.380Z,69.55
2023-01-01T06:55:15.436Z,71.10
2023-01-01T06:58:17.475Z,69.80
2023-01-01T07:01:25.749Z,68.00
2023-01-01T07:04:27.833Z,62.15
2023-01-01T07:07:35.620Z,58.08
2023-01-01T07:10:37.982Z,67.55
2023-01-01T07:13:40.009Z,58.33
2023-01-01T07:16:42.170Z,64.57
2023-01-01T07:19:44.267Z,50.17
2023-01-01T07:22:47.052Z,56.92
2023-01-01T07:25:50.273Z,52.15
2023-01-01T07:28:52.810Z,57.78
2023-01-01T07:31:55.001Z,50.70
2023-01-01T07:35:00.118Z,56.05
2023-01-01T07:38:02.206Z,47.90
2023-01-01T07:41:05.622Z,48.97
2023-01-01T07:44:07.816Z,48.60
2023-01-01T07:47:22.834Z,59.00
2023-01-01T07:50:26.615Z,57.67
2023-01-01T07:53:28.891Z,47.70
2023-01-01T07:56:31.176Z,45.88
2023-01-01T07:59:33.397Z,37.63
2023-01-01T08:02:35.858Z,39.17
2023-01-01T08:05:38.617Z,43.55
2023-01-01T08:08:41.513Z,45.17
2023-01-01T08:11:43.709Z,43.67
2023-01-01T08:14:45.918Z,49.20
2023-01-01T08:17:47.919Z,46.88
2023-01-01T08:20:50.324Z,61.50
2023-01-01T08:23:54.094Z,60.97
2023-01-01T08:26:56.118Z,52.10
2023-01-01T08:29:58.156Z,46.67
2023-01-01T08:33:00.217Z,55.97
2023-01-01T08:36:02.675Z,52.70
2023-01-01T08:39:04.846Z,57.45
2023-01-01T08:42:12.180Z,52.58
2023-01-01T08:45:14.735Z,58.70
2023-01-01T08:48:16.787Z,54.17
2023-01-01T08:51:18.942Z,51.13
2023-01-01T08:54:21.030Z,50.20
2023-01-01T08:57:23.359Z,50.70
2023-01-01T09:00:25.601Z,50.55
2023-01-01T09:03:28.013Z,53.17
2023-01-01T09:06:30.270Z,46.95
2023-01-01T09:09:32.447Z,51.17
2023-01-01T09:12:35.132Z,51.17
2023-01-01T09:15:38.680Z,45.35
2023-01-01T09:18:40.725Z,47.78
2023-01-01T09:21:44.055Z,51.03
2023-01-01T09:24:46.169Z,49.80
2023-01-01T09:27:48.282Z,48.13
2023-01-01T09:30:50.398Z,47.63
2023-01-01T09:33:52.434Z,52.22
2023-01-01T09:36:54.431Z,52.60
2023-01-01T09:39:56.399Z,56.55
2023-01-01T09:43:33.656Z,48.92
2023-01-01T09:46:36.974Z,42.95
2023-01-01T09:49:44.627Z,36.47
2023-01-01T09:53:03.329Z,50.43
2023-01-01T09:56:06.584Z,48.17
2023-01-01T09:59:11.159Z,49.45
2023-01-01T10:02:48.073Z,53.10
2023-01-01T10:06:18.036Z,45.47
2023-01-01T10:09:27.937Z,50.53
2023-01-01T10:12:35.319Z,75.32
2023-01-01T10:15:42.697Z,51.00
2023-01-01T10:22:24.011Z,57.08
2023-01-01T10:25:40.663Z,59.67
2023-01-01T10:28:49.937Z,50.90
2023-01-01T10:32:05.563Z,59.38
2023-01-01T10:35:17.903Z,50.67
2023-01-01T10:38:26.775Z,57.35
2023-01-01T10:41:28.896Z,49.22
2023-01-01T10:44:34.054Z,52.88
2023-01-01T10:47:36.243Z,89.00
2023-01-01T10:50:46.468Z,51.78
2023-01-01T10:53:52.454Z,48.85
2023-01-01T10:56:54.643Z,46.63
2023-01-01T11:00:11.785Z,50.42
2023-01-01T11:03:21.955Z,45.72
2023-01-01T11:06:34.112Z,48.95
2023-01-01T11:09:38.796Z,57.00
2023-01-01T11:13:04.680Z,45.63
2023-01-01T11:16:11.465Z,56.78
2023-01-01T11:19:25.073Z,47.83
2023-01-01T11:22:59.497Z,47.80
2023-01-01T11:26:06.695Z,49.45
2023-01-01T11:29:17.732Z,43.28
2023-01-01T11:32:29.253Z,46.45
2023-01-01T11:35:38.274Z,40.67
2023-01-01T11:38:40.334Z,40.28
2023-01-01T11:41:50.756Z,55.85
2023-01-01T11:45:00.803Z,50.60
2023-01-01T11:48:06.473Z,48.55
2023-01-01T11:51:11.962Z,46.78
2023-01-01T11:54:32.988Z,43.70
2023-01-01T11:57:41.082Z,48.53
2023-01-01T12:00:50.123Z,53.17
2023-01-01T12:04:01.509Z,44.03
2023-01-01T12:07:19.364Z,51.30
2023-01-01T12:11:08.457Z,41.50
2023-01-01T12:14:37.296Z,48.40
2023-01-01T12:17:50.376Z,57.03
2023-01-01T12:21:13.588Z,43.28
2023-01-01T12:24:15.879Z,51.10
2023-01-01T12:27:27.088Z,47.50
2023-01-01T12:30:52.485Z,43.03
2023-01-01T12:34:06.535Z,50.38
2023-01-01T12:37:43.706Z,42.13
2023-01-01T12:40:57.634Z,39.22
2023-01-01T12:44:21.294Z,47.80
2023-01-01T12:47:39.984Z,47.92
2023-01-01T12:51:07.518Z,38.60
2023-01-01T12:54:18.737Z,51.80
2023-01-01T12:57:30.605Z,56.67
2023-01-01T13:00:33.690Z,39.95
2023-01-01T13:03:49.467Z,42.58
2023-01-01T13:06:56.375Z,44.25
2023-01-01T13:10:08.825Z,46.72
2023-01-01T13:13:12.569Z,41.55
2023-01-01T13:16:34.019Z,44.10
2023-01-01T13:19:41.075Z,45.63
2023-01-01T13:22:44.416Z,47.70
2023-01-01T13:25:46.394Z,41.58
2023-01-01T13:28:57.499Z,44.53
2023-01-01T13:32:04.410Z,39.90
2023-01-01T13:35:16.518Z,44.60
2023-01-01T13:38:53.590Z,42.40
2023-01-01T13:41:55.616Z,41.60
2023-01-01T13:44:57.879Z,45.83
2023-01-01T13:48:27.893Z,49.33
2023-01-01T13:52:05.838Z,43.72
2023-01-01T13:55:36.828Z,43.58
2023-01-01T14:01:53.228Z,47.80
2023-01-01T14:05:02.574Z,46.90
2023-01-01T14:08:13.132Z,46.20
2023-01-01T14:11:25.280Z,45.75
2023-01-01T14:14:31.127Z,51.38
2023-01-01T14:17:36.321Z,52.60
2023-01-01T14:20:45.134Z,47.40
2023-01-01T14:23:55.289Z,51.03
2023-01-01T14:26:57.750Z,45.45
2023-01-01T14:29:59.809Z,44.83
2023-01-01T14:33:03.153Z,47.47
2023-01-01T14:39:46.345Z,47.50
2023-01-01T14:42:51.295Z,54.50
2023-01-01T14:45:54.563Z,43.83
2023-01-01T14:49:06.480Z,50.13
2023-01-01T14:52:25.276Z,57.85
2023-01-01T14:55:43.919Z,48.85
2023-01-01T14:58:46.014Z,51.73
2023-01-01T15:02:13.957Z,60.30
2023-01-01T15:05:34.957Z,52.38
2023-01-01T15:08:40.943Z,58.70
2023-01-01T15:11:43.569Z,48.22
2023-01-01T15:14:47.187Z,61.10
2023-01-01T15:17:50.268Z,75.88
2023-01-01T15:20:55.689Z,69.47
2023-01-01T15:24:37.966Z,57.42
2023-01-01T15:27:49.427Z,55.25
2023-01-01T15:30:56.766Z,54.40
2023-01-01T15:33:58.918Z,54.38
2023-01-01T15:37:28.295Z,51.05
2023-01-01T15:40:34.600Z,45.92
2023-01-01T15:43:36.620Z,50.83
2023-01-01T15:47:05.730Z,53.75
2023-01-01T15:53:20.125Z,55.13
2023-01-01T15:56:25.659Z,54.20
2023-01-01T15:59:33.993Z,55.75
2023-01-01T16:02:37.613Z,51.47
2023-01-01T16:05:47.721Z,63.58
2023-01-01T16:08:49.915Z,66.90
2023-01-01T16:12:08.070Z,63.10
2023-01-01T16:15:16.485Z,58.03
2023-01-01T16:21:21.936Z,55.28
2023-01-01T16:24:24.638Z,57.17
2023-01-01T16:27:27.001Z,59.05
2023-01-01T16:30:29.081Z,55.28
2023-01-01T16:33:31.372Z,55.97
2023-01-01T16:36:33.721Z,55.55
2023-01-01T16:39:35.795Z,62.05
2023-01-01T16:42:37.882Z,60.60
2023-01-01T16:45:39.907Z,67.68
2023-01-01T16:48:42.634Z,61.50
2023-01-01T16:51:44.767Z,66.72
2023-01-01T16:54:46.854Z,62.42
2023-01-01T16:57:49.014Z,58.92
2023-01-01T17:01:01.149Z,61.60
2023-01-01T17:04:03.384Z,64.05
2023-01-01T17:07:06.303Z,58.83
2023-01-01T17:10:09.730Z,68.95
2023-01-01T17:13:11.765Z,59.95
2023-01-01T17:16:21.156Z,67.57
2023-01-01T17:19:27.391Z,60.40
2023-01-01T17:22:34.167Z,59.72
2023-01-01T17:25:36.744Z,55.70
2023-01-01T17:28:38.841Z,63.10
2023-01-01T17:31:41.969Z,58.95
2023-01-01T17:34:43.996Z,67.95
2023-01-01T17:37:47.345Z,59.90
2023-01-01T17:40:49.405Z,56.55
2023-01-01T17:43:53.364Z,58.60
2023-01-01T17:46:56.416Z,71.30
2023-01-01T17:49:59.298Z,58.45
2023-01-01T17:53:01.456Z,53.75
2023-01-01T17:56:03.694Z,61.25
2023-01-01T17:59:06.125Z,63.80
2023-01-01T18:02:15.237Z,66.78
2023-01-01T18:05:21.302Z,58.08
2023-01-01T18:08:23.517Z,65.28
2023-01-01T18:11:28.745Z,60.95
2023-01-01T18:14:32.086Z,65.22
2023-01-01T18:17:34.196Z,55.42
2023-01-01T18:20:36.419Z,59.95
2023-01-01T18:23:39.945Z,64.75
2023-01-01T18:26:42.713Z,73.22
2023-01-01T18:29:45.413Z,63.80
2023-01-01T18:32:48.793Z,62.92
2023-01-01T18:35:51.253Z,63.35
2023-01-01T18:39:22.135Z,65.18
2023-01-01T18:42:57.983Z,60.88
2023-01-01T18:46:00.051Z,59.78
2023-01-01T18:49:08.828Z,56.85
2023-01-01T18:52:16.599Z,66.07
2023-01-01T18:58:25.043Z,54.78
2023-01-01T19:01:27.157Z,71.57
2023-01-01T19:04:29.557Z,60.67
2023-01-01T19:07:31.722Z,60.15
2023-01-01T19:10:50.792Z,64.95
2023-01-01T19:14:01.066Z,59.72
2023-01-01T19:17:15.228Z,60.70
2023-01-01T19:20:24.187Z,64.65
2023-01-01T19:23:28.184Z,62.03
2023-01-01T19:26:34.659Z,60.45
2023-01-01T19:29:42.111Z,65.15
2023-01-01T19:32:46.136Z,69.10
2023-01-01T19:35:49.356Z,55.47
2023-01-01T19:38:54.551Z,64.85
2023-01-01T19:42:03.993Z,60.70
2023-01-01T19:45:08.685Z,70.70
2023-01-01T19:48:11.137Z,64.40
2023-01-01T19:51:14.372Z,61.40
2023-01-01T19:54:17.157Z,71.00
2023-01-01T19:57:21.081Z,64.70
2023-01-01T20:00:23.909Z,67.85
2023-01-01T20:03:52.775Z,66.70
2023-01-01T20:06:48.792Z,59.38
2023-01-01T20:09:51.026Z,59.67
2023-01-01T20:12:53.193Z,64.40
2023-01-01T20:15:59.243Z,62.40
2023-01-01T20:19:01.390Z,63.22
2023-01-01T20:22:14.313Z,62.38
2023-01-01T20:25:17.546Z,53.90
2023-01-01T20:28:42.003Z,57.67
2023-01-01T20:31:44.122Z,61.63
2023-01-01T20:34:46.336Z,65.90
2023-01-01T20:37:48.391Z,57.90
2023-01-01T20:40:52.909Z,63.35
2023-01-01T20:43:57.572Z,65.88
2023-01-01T20:47:00.921Z,64.72
2023-01-01T20:50:04.142Z,63.72
2023-01-01T20:53:06.253Z,65.05
2023-01-01T20:56:09.823Z,80.75
2023-01-01T20:59:34.101Z,61.85
2023-01-01T21:02:36.637Z,70.55
2023-01-01T21:05:40.792Z,68.65
2023-01-01T21:08:43.639Z,71.50
2023-01-01T21:11:46.898Z,76.97
2023-01-01T21:14:49.724Z,74.00
2023-01-01T21:21:23.168Z,76.10
2023-01-01T21:24:28.078Z,68.57
2023-01-01T21:27:34.994Z,71.70
2023-01-01T21:30:41.031Z,71.18
2023-01-01T21:33:46.292Z,62.53
2023-01-01T21:36:50.873Z,57.50
2023-01-01T21:39:55.074Z,56.03
2023-01-01T21:43:16.564Z,58.85
2023-01-01T21:46:38.098Z,63.08
2023-01-01T21:49:40.806Z,60.80
2023-01-01T21:52:47.489Z,60.15
2023-01-01T21:55:54.065Z,56.00
2023-01-01T21:59:27.773Z,60.63
2023-01-01T22:02:40.141Z,52.65
2023-01-01T22:05:43.583Z,55.25
2023-01-01T22:08:48.513Z,56.08
2023-01-01T22:11:56.698Z,60.33
2023-01-01T22:15:29.703Z,56.10
2023-01-01T22:18:38.501Z,53.95
2023-01-01T22:21:40.774Z,58.17
2023-01-01T22:24:50.995Z,66.25
2023-01-01T22:27:54.658Z,58.85
2023-01-01T22:30:59.197Z,60.08
2023-01-01T22:34:03.588Z,54.45
2023-01-01T22:37:20.951Z,66.50
2023-01-01T22:40:31.434Z,58.50
2023-01-01T22:43:36.550Z,72.35
2023-01-01T22:46:41.036Z,66.13
2023-01-01T22:49:53.967Z,63.45
2023-01-01T22:52:57.324Z,71.85
2023-01-01T22:56:01.045Z,67.53
2023-01-01T22:59:03.104Z,62.83
2023-01-01T23:02:06.828Z,74.03
2023-01-01T23:05:10.017Z,72.40
2023-01-01T23:08:12.198Z,63.95
2023-01-01T23:11:15.341Z,67.53
2023-01-01T23:14:39.251Z,64.28
2023-01-01T23:17:41.555Z,63.08
2023-01-01T23:20:43.673Z,58.47
2023-01-01T23:23:48.755Z,59.75
2023-01-01T23:26:51.895Z,73.18
2023-01-01T23:29:56.834Z,75.57
2023-01-01T23:33:00.798Z,69.70
2023-01-01T23:36:04.150Z,66.90
2023-01-01T23:39:06.588Z,63.03
2023-01-01T23:42:08.730Z,67.32
2023-01-01T23:45:11.053Z,67.18
2023-01-01T23:48:14.244Z,65.47
2023-01-01T23:51:19.406Z,68.75
2023-01-01T23:54:22.156Z,56.45
2023-01-01T23:57:24.253Z,63.22
